Time;durP1;ratioP1;P1;durP2;ratioP2;P2;SDS_P1;SDS_P2;PMS_P1;PMS_P2;Temp;Humidity;BMP_temperature;BMP_pressure;BME280_temperature;BME280_humidity;BME280_pressure;Samples;Min_cycle;Max_cycle;Signal;HPM_P1;HPM_P2
2022/09/12 00:01:40;;;;;;;12.88;6.20;;;27.20;99.90;;;;;;4145006;28;20120;-64
2022/09/12 00:03:44;;;;;;;7.90;5.40;;;27.30;99.90;;;;;;4144798;28;20062;-65
2022/09/12 00:05:49;;;;;;;6.72;4.90;;;27.50;99.90;;;;;;4144776;28;20646;-64
2022/09/12 00:07:57;;;;;;;7.75;4.20;;;27.40;99.90;;;;;;4144944;28;20050;-64
2022/09/12 00:10:02;;;;;;;6.20;4.15;;;27.40;99.90;;;;;;4144924;28;20050;-64
2022/09/12 00:12:07;;;;;;;6.15;4.30;;;27.50;99.90;;;;;;4159617;28;20571;-64
2022/09/12 00:14:16;;;;;;;10.18;4.65;;;27.50;99.90;;;;;;4144934;28;20133;-65
2022/09/12 00:16:24;;;;;;;5.82;4.30;;;27.40;99.90;;;;;;4144050;28;20528;-64
2022/09/12 00:18:29;;;;;;;5.57;4.00;;;27.30;99.90;;;;;;4143632;28;20788;-64
2022/09/12 00:20:38;;;;;;;8.52;5.57;;;27.30;99.90;;;;;;4143460;28;20054;-63
2022/09/12 00:22:43;;;;;;;9.82;4.95;;;27.40;99.90;;;;;;4142220;28;20049;-64
2022/09/12 00:24:47;;;;;;;6.05;4.45;;;27.50;99.90;;;;;;4143237;28;20045;-64
2022/09/12 00:26:55;;;;;;;7.75;3.72;;;27.60;99.90;;;;;;4143389;28;20160;-64
2022/09/12 00:28:59;;;;;;;8.20;4.38;;;27.70;99.90;;;;;;4141792;28;20137;-64
2022/09/12 00:31:10;;;;;;;6.80;4.22;;;27.80;99.90;;;;;;4143079;28;20056;-64
2022/09/12 00:33:18;;;;;;;;;;;27.80;99.90;;;;;;4141342;28;20046;-63
2022/09/12 00:35:22;;;;;;;6.75;4.28;;;27.70;99.90;;;;;;4142342;28;19929;-64
2022/09/12 00:37:30;;;;;;;8.65;3.72;;;27.80;99.90;;;;;;4158461;28;20528;-64
2022/09/12 00:39:38;;;;;;;7.10;3.55;;;27.90;99.90;;;;;;4141832;28;20150;-63
2022/09/12 00:41:43;;;;;;;5.40;3.42;;;27.90;99.90;;;;;;4144362;28;20050;-64
2022/09/12 00:43:57;;;;;;;6.35;3.13;;;28.00;99.90;;;;;;4159102;28;20053;-63
2022/09/12 00:46:17;;;;;;;8.07;3.42;;;28.00;99.90;;;;;;4143950;28;20058;-63
2022/09/12 00:48:25;;;;;;;7.05;4.00;;;28.10;99.90;;;;;;4144849;28;20054;-64
2022/09/12 00:50:30;;;;;;;4.60;3.30;;;28.10;99.90;;;;;;4144067;28;20108;-63
2022/09/12 00:52:54;;;;;;;4.78;2.90;;;28.20;99.90;;;;;;4144239;28;20397;-63
2022/09/12 00:55:30;;;;;;;5.55;3.25;;;28.20;99.90;;;;;;4144432;28;20052;-63
2022/09/12 00:57:57;;;;;;;3.65;2.92;;;28.20;99.90;;;;;;4143931;28;20053;-63
2022/09/12 01:00:14;;;;;;;5.20;3.00;;;28.30;99.90;;;;;;4141415;28;20061;-63
2022/09/12 01:02:19;;;;;;;8.75;3.20;;;28.30;99.90;;;;;;4144068;28;20048;-64
2022/09/12 01:04:24;;;;;;;4.40;2.70;;;28.40;99.90;;;;;;4146399;28;20061;-63
2022/09/12 01:06:35;;;;;;;5.35;3.20;;;28.40;99.90;;;;;;4136310;28;20046;-64
2022/09/12 01:08:40;;;;;;;4.75;2.72;;;28.50;99.90;;;;;;4130614;28;20089;-64
2022/09/12 01:10:44;;;;;;;2.70;2.28;;;28.50;99.90;;;;;;4130127;28;20080;-63
2022/09/12 01:12:51;;;;;;;4.45;2.88;;;28.50;99.90;;;;;;4130205;28;20413;-63
2022/09/12 01:14:55;;;;;;;4.30;2.30;;;28.50;99.90;;;;;;4130787;28;20077;-64
2022/09/12 01:17:00;;;;;;;9.52;2.67;;;28.50;99.90;;;;;;4135748;28;20835;-62
2022/09/12 01:19:45;;;;;;;5.97;2.83;;;28.50;99.90;;;;;;4111917;28;20553;-63
2022/09/12 01:22:16;;;;;;;3.08;2.10;;;28.60;99.90;;;;;;4146082;28;20136;-63
2022/09/12 01:24:46;;;;;;;2.53;2.20;;;28.60;99.90;;;;;;4146260;28;20945;-63
2022/09/12 01:27:26;;;;;;;3.78;2.15;;;28.70;99.90;;;;;;4145970;28;20073;-63
2022/09/12 01:29:54;;;;;;;2.95;2.20;;;28.70;99.90;;;;;;4144687;28;20099;-64
2022/09/12 01:32:23;;;;;;;4.70;2.45;;;28.70;99.90;;;;;;4145072;28;20050;-64
2022/09/12 01:34:57;;;;;;;2.88;2.15;;;28.70;99.90;;;;;;4132259;28;20413;-63
2022/09/12 01:37:21;;;;;;;6.20;2.45;;;28.80;99.90;;;;;;4141817;28;20050;-64
2022/09/12 01:39:39;;;;;;;3.60;2.00;;;28.80;99.90;;;;;;4145654;28;20189;-63
2022/09/12 01:42:02;;;;;;;3.13;2.40;;;28.80;99.90;;;;;;4145062;28;20045;-64
2022/09/12 01:44:33;;;;;;;4.80;2.15;;;28.90;99.90;;;;;;4145967;28;20524;-64
2022/09/12 01:47:17;;;;;;;2.88;2.08;;;28.90;99.90;;;;;;4145711;28;20050;-64
2022/09/12 01:49:33;;;;;;;2.85;2.20;;;29.10;99.90;;;;;;4176031;28;20150;-64
2022/09/12 01:52:01;;;;;;;3.92;2.22;;;29.10;99.90;;;;;;4136307;28;20058;-64
2022/09/12 01:54:21;;;;;;;3.15;2.58;;;29.10;99.90;;;;;;4145893;28;20069;-63
2022/09/12 01:56:28;;;;;;;2.95;2.50;;;29.20;99.90;;;;;;4132513;28;20054;-63
2022/09/12 01:59:04;;;;;;;3.08;2.10;;;29.10;99.90;;;;;;4129898;28;20054;-64
2022/09/12 02:01:28;;;;;;;3.47;2.25;;;29.20;99.90;;;;;;4144662;28;20061;-63
2022/09/12 02:03:59;;;;;;;3.28;1.92;;;29.20;99.90;;;;;;4146056;28;20424;-64
2022/09/12 02:06:10;;;;;;;4.00;2.20;;;29.20;99.90;;;;;;4145538;28;20416;-64
2022/09/12 02:08:18;;;;;;;3.95;2.03;;;29.40;99.90;;;;;;4145618;28;20152;-64
2022/09/12 02:10:28;;;;;;;6.63;2.63;;;29.50;99.90;;;;;;4145690;28;20068;-63
2022/09/12 02:12:46;;;;;;;2.78;2.38;;;29.60;99.90;;;;;;4145567;28;20042;-64
2022/09/12 02:14:53;;;;;;;3.85;2.15;;;29.70;99.90;;;;;;4146006;28;20037;-63
2022/09/12 02:17:12;;;;;;;2.50;1.92;;;29.80;99.90;;;;;;4110637;28;20049;-63
2022/09/12 02:19:23;;;;;;;2.72;2.03;;;29.90;99.90;;;;;;4129119;28;20046;-63
2022/09/12 02:21:31;;;;;;;2.70;2.00;;;29.90;99.90;;;;;;4138155;28;20392;-63
2022/09/12 02:23:40;;;;;;;2.67;2.40;;;29.90;99.90;;;;;;4145876;28;20060;-63
2022/09/12 02:25:45;;;;;;;2.72;1.98;;;29.80;99.90;;;;;;4176194;28;20041;-63
2022/09/12 02:27:54;;;;;;;3.40;1.95;;;29.80;99.90;;;;;;4145573;28;20053;-63
2022/09/12 02:30:01;;;;;;;4.97;2.10;;;29.90;99.90;;;;;;4144797;28;20156;-64
2022/09/12 02:32:19;;;;;;;3.03;2.13;;;29.90;99.90;;;;;;4134361;28;20038;-63
2022/09/12 02:34:54;;;;;;;3.55;2.55;;;30.00;99.90;;;;;;4160709;28;20049;-63
2022/09/12 02:37:24;;;;;;;2.85;2.42;;;29.90;99.90;;;;;;4145190;28;20512;-63
2022/09/12 02:39:33;;;;;;;4.68;2.72;;;29.90;99.90;;;;;;4160363;28;20928;-63
2022/09/12 02:41:37;;;;;;;6.45;2.50;;;29.90;99.90;;;;;;4145100;28;20481;-64
2022/09/12 02:43:41;;;;;;;7.30;3.38;;;29.90;99.90;;;;;;4145016;28;20046;-63
2022/09/12 02:45:48;;;;;;;10.85;5.95;;;29.90;99.90;;;;;;4145375;28;20056;-64
2022/09/12 02:48:05;;;;;;;13.77;7.70;;;29.90;99.90;;;;;;4144380;28;20145;-64
2022/09/12 02:50:11;;;;;;;5.93;3.60;;;29.90;99.90;;;;;;4145266;28;20076;-64
2022/09/12 02:52:17;;;;;;;4.43;3.10;;;30.00;99.90;;;;;;4158939;28;20136;-64
2022/09/12 02:54:22;;;;;;;3.78;2.88;;;30.10;99.90;;;;;;4131418;28;20593;-63
2022/09/12 02:56:29;;;;;;;5.00;3.08;;;30.20;99.90;;;;;;4128927;28;20054;-64
2022/09/12 02:58:35;;;;;;;3.65;2.53;;;30.10;99.90;;;;;;4143561;28;20127;-64
2022/09/12 03:01:04;;;;;;;3.42;2.60;;;30.20;99.90;;;;;;4133279;28;20050;-64
2022/09/12 03:03:26;;;;;;;5.13;3.05;;;30.30;99.90;;;;;;4144482;28;20060;-64
2022/09/12 03:05:37;;;;;;;5.63;2.95;;;30.40;99.90;;;;;;4145109;28;20107;-64
2022/09/12 03:08:07;;;;;;;5.03;2.85;;;30.50;99.90;;;;;;4160273;28;20048;-64
2022/09/12 03:10:33;;;;;;;15.60;10.85;;;30.60;99.90;;;;;;4145262;28;20049;-64
2022/09/12 03:13:03;;;;;;;11.65;8.57;;;30.70;99.90;;;;;;4144930;28;20125;-64
2022/09/12 03:15:28;;;;;;;5.15;3.70;;;30.80;99.90;;;;;;4144574;28;20054;-64
2022/09/12 03:17:48;;;;;;;5.20;2.83;;;30.90;99.90;;;;;;4145070;28;20049;-64
2022/09/12 03:20:20;;;;;;;6.03;3.90;;;30.90;99.90;;;;;;4144343;28;20042;-64
2022/09/12 03:22:32;;;;;;;4.63;2.75;;;31.00;99.90;;;;;;4128592;28;20065;-64
2022/09/12 03:25:03;;;;;;;4.35;2.45;;;31.10;99.90;;;;;;4129987;28;20514;-64
2022/09/12 03:27:15;;;;;;;2.85;2.10;;;31.20;99.90;;;;;;4143700;28;20132;-64
2022/09/12 03:29:19;;;;;;;3.13;2.60;;;31.10;99.90;;;;;;4142204;28;20923;-64
2022/09/12 03:31:26;;;;;;;3.70;2.60;;;31.00;99.90;;;;;;4144443;28;20048;-67
2022/09/12 03:33:33;;;;;;;3.45;2.20;;;31.00;99.90;;;;;;4144841;28;20046;-67
2022/09/12 03:35:38;;;;;;;3.67;2.33;;;31.00;99.90;;;;;;4175803;28;20057;-67
2022/09/12 03:37:44;;;;;;;4.35;2.50;;;31.10;99.90;;;;;;4109745;28;20098;-68
2022/09/12 03:39:52;;;;;;;6.07;2.40;;;31.10;99.90;;;;;;4144896;28;20050;-68
2022/09/12 03:41:57;;;;;;;5.00;2.65;;;31.00;99.90;;;;;;4175954;28;20053;-67
2022/09/12 03:44:04;;;;;;;3.15;2.58;;;30.90;99.90;;;;;;4144675;28;20398;-68
2022/09/12 03:46:10;;;;;;;3.28;2.28;;;30.90;99.90;;;;;;4143596;28;20052;-68
2022/09/12 03:48:15;;;;;;;3.65;2.13;;;31.20;99.90;;;;;;4144615;28;20137;-68
2022/09/12 03:50:19;;;;;;;3.88;2.20;;;31.30;99.90;;;;;;4142503;28;20085;-68
2022/09/12 03:52:24;;;;;;;4.35;1.80;;;31.40;99.90;;;;;;4144520;28;20189;-67
2022/09/12 03:54:28;;;;;;;2.83;2.00;;;31.50;99.90;;;;;;4144894;28;20077;-67
2022/09/12 03:56:35;;;;;;;3.45;1.83;;;31.50;99.90;;;;;;4144763;28;20058;-67
2022/09/12 03:58:40;;;;;;;4.70;2.03;;;31.60;99.90;;;;;;4159159;28;20057;-68
2022/09/12 04:00:45;;;;;;;3.70;1.90;;;31.70;99.90;;;;;;4144766;28;20056;-68
2022/09/12 04:02:55;;;;;;;12.55;2.45;;;31.80;99.90;;;;;;4155327;28;20041;-68
2022/09/12 04:05:02;;;;;;;2.30;1.88;;;31.80;99.90;;;;;;4141404;28;20138;-69
2022/09/12 04:07:06;;;;;;;3.47;1.63;;;31.90;99.90;;;;;;4139784;28;20635;-68
2022/09/12 04:09:13;;;;;;;4.20;1.90;;;31.90;99.90;;;;;;4145168;28;20061;-67
2022/09/12 04:11:18;;;;;;;2.80;2.00;;;31.90;99.90;;;;;;4134039;28;20112;-67
2022/09/12 04:13:23;;;;;;;3.22;1.90;;;31.90;99.90;;;;;;4129244;28;20641;-67
2022/09/12 04:15:29;;;;;;;2.28;1.73;;;31.90;99.90;;;;;;4159021;28;20049;-67
2022/09/12 04:17:36;;;;;;;2.17;1.50;;;32.10;99.90;;;;;;4138679;28;20056;-67
2022/09/12 04:19:41;;;;;;;2.03;1.60;;;32.10;99.90;;;;;;4143255;28;20052;-67
2022/09/12 04:21:47;;;;;;;2.45;1.70;;;32.10;99.90;;;;;;4173354;28;20148;-67
2022/09/12 04:23:53;;;;;;;1.88;1.52;;;32.20;99.90;;;;;;4144825;28;20049;-67
2022/09/12 04:25:59;;;;;;;2.83;2.00;;;32.20;99.90;;;;;;4145301;28;20057;-68
2022/09/12 04:28:06;;;;;;;3.13;1.65;;;32.20;99.90;;;;;;4125957;28;20054;-67
2022/09/12 04:30:12;;;;;;;3.33;2.25;;;32.30;99.90;;;;;;4144975;28;20058;-67
2022/09/12 04:32:17;;;;;;;2.75;1.90;;;32.40;99.90;;;;;;4142890;28;20568;-67
2022/09/12 04:34:22;;;;;;;3.13;2.00;;;32.40;99.90;;;;;;4144544;28;20120;-67
2022/09/12 04:36:27;;;;;;;2.80;2.03;;;32.40;99.90;;;;;;4144961;28;20041;-66
2022/09/12 04:38:32;;;;;;;5.03;2.00;;;32.40;99.90;;;;;;4145858;28;20069;-67
2022/09/12 04:40:40;;;;;;;3.42;1.52;;;32.50;99.90;;;;;;4127496;28;20882;-65
2022/09/12 04:42:46;;;;;;;3.92;1.63;;;32.50;99.90;;;;;;4146441;28;20054;-66
2022/09/12 04:44:51;;;;;;;2.47;1.70;;;32.50;99.90;;;;;;4146177;28;20084;-66
2022/09/12 04:46:57;;;;;;;2.40;1.52;;;32.60;99.90;;;;;;4145744;28;20119;-66
2022/09/12 04:49:03;;;;;;;3.45;1.95;;;32.50;99.60;;;;;;4145596;28;20077;-67
2022/09/12 04:51:13;;;;;;;1.50;1.30;;;32.60;99.70;;;;;;4145455;28;20397;-66
2022/09/12 04:53:33;;;;;;;2.72;1.85;;;32.60;99.60;;;;;;4144989;28;20038;-67
2022/09/12 04:55:50;;;;;;;1.90;1.65;;;32.60;99.20;;;;;;4145180;28;20133;-67
2022/09/12 04:57:56;;;;;;;3.17;1.60;;;32.60;99.00;;;;;;4145614;28;20049;-66
2022/09/12 05:00:03;;;;;;;3.22;1.35;;;32.60;99.30;;;;;;4145727;28;20044;-66
2022/09/12 05:02:11;;;;;;;2.35;1.70;;;32.60;99.50;;;;;;4145687;28;20103;-67
2022/09/12 05:04:16;;;;;;;2.42;1.60;;;32.70;99.30;;;;;;4145769;28;20616;-67
2022/09/12 05:06:23;;;;;;;1.85;1.70;;;32.70;99.00;;;;;;4126967;28;20054;-67
2022/09/12 05:08:30;;;;;;;2.90;1.75;;;32.70;99.00;;;;;;4175474;28;20132;-67
2022/09/12 05:10:35;;;;;;;2.67;1.70;;;32.80;99.00;;;;;;4145671;28;20068;-67
2022/09/12 05:12:41;;;;;;;2.55;1.70;;;32.90;99.10;;;;;;4176508;28;20116;-67
2022/09/12 05:14:47;;;;;;;2.88;1.73;;;33.00;99.30;;;;;;4145313;28;20108;-66
2022/09/12 05:16:51;;;;;;;2.40;1.70;;;33.00;98.90;;;;;;4133338;28;20034;-66
2022/09/12 05:18:59;;;;;;;2.45;1.60;;;33.10;98.70;;;;;;4145216;28;20524;-66
2022/09/12 05:21:06;;;;;;;2.22;1.77;;;33.10;98.40;;;;;;4144977;28;20089;-67
2022/09/12 05:23:11;;;;;;;2.95;2.30;;;33.10;98.10;;;;;;4144590;28;20050;-67
2022/09/12 05:25:17;;;;;;;1.80;1.58;;;33.20;97.90;;;;;;4145168;28;20080;-66
2022/09/12 05:27:25;;;;;;;4.20;1.90;;;33.20;97.60;;;;;;4145007;28;20080;-66
2022/09/12 05:29:30;;;;;;;4.00;1.70;;;33.20;97.30;;;;;;4145250;28;20575;-67
2022/09/12 05:31:35;;;;;;;1.95;1.58;;;33.20;97.20;;;;;;4145425;28;20045;-67
2022/09/12 05:33:42;;;;;;;5.15;1.88;;;33.30;97.60;;;;;;4145207;28;20042;-67
2022/09/12 05:35:51;;;;;;;2.60;1.52;;;33.30;98.00;;;;;;4177185;28;20041;-67
2022/09/12 05:37:58;;;;;;;1.92;1.38;;;33.10;98.50;;;;;;4144699;28;20056;-67
2022/09/12 05:40:07;;;;;;;3.25;1.55;;;33.20;98.60;;;;;;4176360;28;20076;-66
2022/09/12 05:42:13;;;;;;;2.67;1.70;;;33.30;98.50;;;;;;4145043;28;20045;-67
2022/09/12 05:44:20;;;;;;;1.95;1.73;;;33.50;96.90;;;;;;4145391;28;20104;-67
2022/09/12 05:46:29;;;;;;;1.90;1.55;;;33.60;97.40;;;;;;4144989;28;20056;-67
2022/09/12 05:48:34;;;;;;;2.30;1.98;;;33.70;97.70;;;;;;4143798;28;20046;-68
2022/09/12 05:50:41;;;;;;;2.85;1.95;;;33.70;97.50;;;;;;4159977;28;20116;-68
2022/09/12 05:52:47;;;;;;;3.15;1.92;;;33.80;97.70;;;;;;4144599;28;20046;-67
2022/09/12 05:54:52;;;;;;;4.43;1.60;;;33.80;97.30;;;;;;4145147;28;20096;-67
2022/09/12 05:56:58;;;;;;;3.40;1.77;;;33.90;97.10;;;;;;4145118;28;20432;-67
2022/09/12 05:59:15;;;;;;;2.83;1.65;;;33.90;97.30;;;;;;4144823;28;20050;-67
2022/09/12 06:01:20;;;;;;;2.85;1.80;;;34.00;97.40;;;;;;4145271;28;20056;-67
2022/09/12 06:03:27;;;;;;;3.35;1.73;;;33.90;97.40;;;;;;4144871;28;20050;-66
2022/09/12 06:05:33;;;;;;;1.92;1.65;;;33.90;97.00;;;;;;4143490;28;20054;-67
2022/09/12 06:07:38;;;;;;;3.75;1.90;;;33.80;97.30;;;;;;4176264;28;20526;-66
2022/09/12 06:09:44;;;;;;;3.33;1.95;;;33.90;97.20;;;;;;4143183;28;20085;-67
2022/09/12 06:11:50;;;;;;;2.78;1.80;;;33.80;97.20;;;;;;4144621;28;20050;-66
2022/09/12 06:13:56;;;;;;;3.08;1.75;;;33.70;97.20;;;;;;4144832;28;20049;-67
2022/09/12 06:16:04;;;;;;;3.35;1.73;;;33.60;97.20;;;;;;4142259;28;20038;-66
2022/09/12 06:18:10;;;;;;;3.10;1.85;;;33.80;96.80;;;;;;4144505;28;20087;-67
2022/09/12 06:20:15;;;;;;;4.15;1.90;;;33.70;96.70;;;;;;4159268;28;20049;-67
2022/09/12 06:22:21;;;;;;;3.55;1.98;;;33.80;97.20;;;;;;4110087;28;20055;-67
2022/09/12 06:24:25;;;;;;;2.40;1.70;;;33.70;97.30;;;;;;4144526;28;20065;-67
2022/09/12 06:26:29;;;;;;;2.13;1.80;;;33.50;96.50;;;;;;4144444;28;20050;-67
2022/09/12 06:28:37;;;;;;;3.20;1.98;;;33.20;97.30;;;;;;4144228;28;20141;-67
2022/09/12 06:30:44;;;;;;;6.57;2.00;;;32.90;97.30;;;;;;4144387;28;20050;-67
2022/09/12 06:32:48;;;;;;;2.67;1.98;;;32.60;97.40;;;;;;4143865;28;20684;-67
2022/09/12 06:34:55;;;;;;;3.92;1.90;;;32.30;97.20;;;;;;4176021;28;20553;-66
2022/09/12 06:37:02;;;;;;;5.40;2.28;;;32.20;97.50;;;;;;4144452;28;20053;-67
2022/09/12 06:39:09;;;;;;;3.75;2.13;;;32.10;97.70;;;;;;4144198;28;20050;-67
2022/09/12 06:41:16;;;;;;;4.78;2.40;;;31.90;98.20;;;;;;4144067;28;20096;-67
2022/09/12 06:43:24;;;;;;;5.38;2.88;;;32.00;98.90;;;;;;4144064;28;20073;-67
2022/09/12 06:45:29;;;;;;;5.22;3.00;;;32.00;99.00;;;;;;4144189;28;20877;-67
2022/09/12 06:47:36;;;;;;;4.97;3.38;;;32.00;98.90;;;;;;4143624;28;20045;-66
2022/09/12 06:49:40;;;;;;;7.20;3.55;;;32.00;98.90;;;;;;4144341;28;20501;-66
2022/09/12 06:51:44;;;;;;;6.13;4.32;;;31.80;98.90;;;;;;4144180;28;20563;-67
2022/09/12 06:53:49;;;;;;;6.43;3.67;;;31.70;98.80;;;;;;4143741;28;20778;-67
2022/09/12 06:56:00;;;;;;;4.07;2.90;;;31.80;99.00;;;;;;4144260;28;20041;-67
2022/09/12 06:58:04;;;;;;;5.40;3.08;;;31.80;98.80;;;;;;4143660;28;20137;-67
2022/09/12 07:00:11;;;;;;;4.93;3.05;;;31.90;98.70;;;;;;4143821;28;20116;-66
2022/09/12 07:02:15;;;;;;;5.07;3.38;;;31.80;98.70;;;;;;4143324;28;20057;-67
2022/09/12 07:04:20;;;;;;;5.40;2.40;;;31.90;98.70;;;;;;4175215;28;20812;-66
2022/09/12 07:06:30;;;;;;;4.70;2.20;;;31.80;98.30;;;;;;4143549;28;20566;-67
2022/09/12 07:08:36;;;;;;;3.90;2.08;;;31.80;99.90;;;;;;4143762;28;20086;-67
2022/09/12 07:10:41;;;;;;;4.05;2.35;;;31.80;99.90;;;;;;4143886;28;20408;-66
2022/09/12 07:12:46;;;;;;;3.90;2.65;;;31.70;99.90;;;;;;4143919;28;20057;-67
2022/09/12 07:14:53;;;;;;;2.90;2.55;;;31.60;99.90;;;;;;4143635;28;20041;-67
2022/09/12 07:16:57;;;;;;;5.38;2.35;;;31.60;99.90;;;;;;4143344;28;20049;-66
2022/09/12 07:19:04;;;;;;;4.25;2.45;;;31.50;99.90;;;;;;4143258;28;20054;-66
2022/09/12 07:21:13;;;;;;;5.50;2.35;;;31.50;99.90;;;;;;4143519;28;20058;-65
2022/09/12 07:23:17;;;;;;;5.47;2.30;;;31.60;99.90;;;;;;4143822;28;20054;-66
2022/09/12 07:25:24;;;;;;;4.55;2.17;;;31.60;99.90;;;;;;4143494;28;20061;-66
2022/09/12 07:27:30;;;;;;;3.22;2.30;;;31.60;99.90;;;;;;4144034;28;20076;-66
2022/09/12 07:29:34;;;;;;;3.20;2.20;;;31.60;99.90;;;;;;4144119;28;20057;-66
2022/09/12 07:31:40;;;;;;;4.20;2.20;;;31.60;99.90;;;;;;4144039;28;20516;-66
2022/09/12 07:33:47;;;;;;;2.20;2.00;;;31.50;99.90;;;;;;4143209;28;20839;-66
2022/09/12 07:36:02;;;;;;;2.30;1.92;;;31.50;99.90;;;;;;4143523;28;20046;-66
2022/09/12 07:38:08;;;;;;;3.50;2.20;;;31.60;99.90;;;;;;4143944;28;20702;-66
2022/09/12 07:40:14;;;;;;;2.42;1.83;;;31.50;99.90;;;;;;4145550;28;20038;-66
2022/09/12 07:42:19;;;;;;;4.28;2.13;;;31.50;99.90;;;;;;4138956;28;20049;-65
2022/09/12 07:44:25;;;;;;;3.10;2.55;;;31.50;99.60;;;;;;4145702;28;20042;-66
2022/09/12 07:46:33;;;;;;;5.85;2.88;;;31.30;99.80;;;;;;4146679;28;20058;-67
2022/09/12 07:48:38;;;;;;;5.20;2.20;;;30.80;99.90;;;;;;4146374;28;20050;-66
2022/09/12 07:50:44;;;;;;;3.30;2.00;;;30.70;99.90;;;;;;4144189;28;20046;-66
2022/09/12 07:52:52;;;;;;;2.92;1.80;;;30.80;99.90;;;;;;4146415;28;20085;-65
2022/09/12 07:54:57;;;;;;;3.45;1.95;;;30.60;99.90;;;;;;4146598;28;20075;-66
2022/09/12 07:57:03;;;;;;;2.92;2.08;;;30.60;99.90;;;;;;4146654;28;20041;-65
2022/09/12 07:59:09;;;;;;;2.80;1.90;;;30.60;99.90;;;;;;4146518;28;20050;-65
2022/09/12 08:01:17;;;;;;;5.95;1.88;;;30.60;99.90;;;;;;4146462;28;20067;-66
2022/09/12 08:03:21;;;;;;;3.92;2.10;;;30.80;99.90;;;;;;4177538;28;20037;-66
2022/09/12 08:05:28;;;;;;;2.92;1.90;;;30.70;99.90;;;;;;4146452;28;20077;-66
2022/09/12 08:07:33;;;;;;;5.50;2.00;;;30.80;99.90;;;;;;4146529;28;20053;-65
2022/09/12 08:09:40;;;;;;;5.13;2.00;;;30.90;99.70;;;;;;4146077;28;20476;-66
2022/09/12 08:11:46;;;;;;;2.72;1.50;;;30.60;99.90;;;;;;4146491;28;20057;-66
2022/09/12 08:13:51;;;;;;;4.25;2.10;;;30.40;99.90;;;;;;4146602;28;20070;-66
2022/09/12 08:15:59;;;;;;;3.97;2.10;;;30.50;99.90;;;;;;4111638;28;20125;-65
2022/09/12 08:18:03;;;;;;;5.30;2.47;;;30.50;99.90;;;;;;4145612;28;20489;-66
2022/09/12 08:20:11;;;;;;;2.42;1.92;;;30.40;99.90;;;;;;4146192;28;20100;-66
2022/09/12 08:22:20;;;;;;;3.50;1.95;;;30.30;99.90;;;;;;4146302;28;20054;-65
2022/09/12 08:24:27;;;;;;;3.85;2.25;;;30.30;99.90;;;;;;4146297;28;20649;-66
2022/09/12 08:26:32;;;;;;;3.80;2.00;;;30.20;99.90;;;;;;4145629;28;20050;-68
2022/09/12 08:28:40;;;;;;;5.95;2.10;;;30.10;99.90;;;;;;4145326;28;20057;-66
2022/09/12 08:30:46;;;;;;;2.42;1.75;;;30.00;99.90;;;;;;4146091;28;20050;-67
2022/09/12 08:32:50;;;;;;;2.53;1.80;;;29.90;99.90;;;;;;4145995;28;20219;-67
2022/09/12 08:34:56;;;;;;;4.55;2.20;;;30.10;99.90;;;;;;4146118;28;20042;-67
2022/09/12 08:37:02;;;;;;;3.05;2.30;;;30.00;99.90;;;;;;4146139;28;20046;-67
2022/09/12 08:39:07;;;;;;;4.18;2.25;;;30.00;99.90;;;;;;4146040;28;20096;-67
2022/09/12 08:41:30;;;;;;;3.17;2.20;;;30.10;99.90;;;;;;4145106;28;20815;-67
2022/09/12 08:43:52;;;;;;;3.13;2.17;;;30.00;99.90;;;;;;4145649;28;20497;-67
2022/09/12 08:46:11;;;;;;;6.10;2.60;;;29.80;99.90;;;;;;4144798;28;20108;-67
2022/09/12 08:48:17;;;;;;;3.38;2.17;;;29.70;99.90;;;;;;4145569;28;20050;-67
2022/09/12 08:50:24;;;;;;;2.55;2.30;;;29.80;99.90;;;;;;4145378;28;20089;-67
2022/09/12 08:52:53;;;;;;;5.93;2.20;;;29.80;99.90;;;;;;4145457;28;20745;-67
2022/09/12 08:54:59;;;;;;;3.13;2.10;;;29.70;99.90;;;;;;4145938;28;20137;-67
2022/09/12 08:57:08;;;;;;;4.32;2.40;;;29.80;99.90;;;;;;4145684;28;20515;-67
2022/09/12 08:59:12;;;;;;;4.50;2.42;;;29.90;99.90;;;;;;4145887;28;20060;-67
2022/09/12 09:01:42;;;;;;;3.30;2.40;;;30.00;99.90;;;;;;4143154;28;20227;-67
2022/09/12 09:04:26;;;;;;;4.70;2.25;;;30.10;99.90;;;;;;4142588;28;20141;-67
2022/09/12 09:07:13;;;;;;;5.68;2.47;;;30.20;99.90;;;;;;4116834;28;20616;-68
2022/09/12 09:09:35;;;;;;;3.78;1.95;;;30.10;99.90;;;;;;4129235;28;20054;-69
2022/09/12 09:12:13;;;;;;;4.75;3.17;;;29.70;99.90;;;;;;4129454;28;20486;-71
2022/09/12 09:16:54;;;;;;;7.10;3.90;;;29.80;99.90;;;;;;4133696;28;20070;-69
2022/09/12 09:19:02;;;;;;;5.32;2.58;;;30.00;99.90;;;;;;4144859;28;20053;-69
2022/09/12 09:21:46;;;;;;;4.45;2.60;;;30.10;99.90;;;;;;4145184;28;20077;-71
2022/09/12 09:23:56;;;;;;;9.25;3.03;;;30.00;99.90;;;;;;4129337;28;20054;-69
2022/09/12 09:26:26;;;;;;;7.45;5.05;;;30.30;99.90;;;;;;4129297;28;20065;-69
2022/09/12 09:28:53;;;;;;;6.32;2.92;;;30.40;99.90;;;;;;4128528;28;20097;-69
2022/09/12 09:30:59;;;;;;;6.18;2.85;;;30.20;99.90;;;;;;4128829;28;20070;-69
2022/09/12 09:33:05;;;;;;;5.75;2.63;;;30.40;99.90;;;;;;4128874;28;20050;-70
2022/09/12 09:35:29;;;;;;;6.13;2.60;;;30.10;99.90;;;;;;4129092;28;20069;-70
2022/09/12 09:37:44;;;;;;;4.95;2.45;;;30.20;99.90;;;;;;4128809;28;20894;-69
2022/09/12 09:40:11;;;;;;;8.27;3.00;;;30.40;99.90;;;;;;4129214;28;20486;-69
2022/09/12 09:42:41;;;;;;;4.93;3.10;;;30.40;99.90;;;;;;4144868;28;20101;-70
2022/09/12 09:44:47;;;;;;;4.20;2.50;;;30.10;99.90;;;;;;4144875;28;20133;-70
2022/09/12 09:46:54;;;;;;;5.80;2.63;;;30.00;99.90;;;;;;4144178;28;20496;-70
2022/09/12 09:49:02;;;;;;;4.32;2.20;;;30.10;99.90;;;;;;4152682;28;20482;-69
2022/09/12 09:51:09;;;;;;;4.40;2.05;;;29.90;99.90;;;;;;4135211;28;20828;-71
2022/09/12 09:53:45;;;;;;;5.22;2.50;;;30.00;99.90;;;;;;4149988;28;20054;-70
2022/09/12 09:55:49;;;;;;;5.95;2.80;;;30.00;99.90;;;;;;4153337;28;20143;-68
2022/09/12 09:57:59;;;;;;;6.25;2.40;;;29.90;99.90;;;;;;4135971;28;20085;-69
2022/09/12 10:00:34;;;;;;;5.32;2.70;;;29.80;99.90;;;;;;4139729;28;20366;-69
2022/09/12 10:02:39;;;;;;;5.82;2.45;;;30.00;99.90;;;;;;4133353;28;20050;-70
2022/09/12 10:04:54;;;;;;;3.53;2.55;;;30.00;99.90;;;;;;4142608;28;20446;-69
2022/09/12 10:07:00;;;;;;;7.38;2.70;;;29.90;99.90;;;;;;4142615;28;20137;-70
2022/09/12 10:09:18;;;;;;;5.00;3.03;;;29.80;99.90;;;;;;4141843;28;20046;-70
2022/09/12 10:11:25;;;;;;;4.97;2.47;;;29.80;99.90;;;;;;4143726;28;20157;-70
2022/09/12 10:13:55;;;;;;;5.03;2.40;;;29.50;99.90;;;;;;4143712;28;20053;-70
2022/09/12 10:16:02;;;;;;;4.25;2.40;;;29.50;99.90;;;;;;4143863;28;20045;-70
2022/09/12 10:18:06;;;;;;;4.13;2.22;;;29.60;99.90;;;;;;4144909;28;20057;-68
2022/09/12 10:20:36;;;;;;;4.95;2.40;;;29.50;99.90;;;;;;4146219;28;20042;-68
2022/09/12 10:22:40;;;;;;;5.13;2.30;;;29.60;99.90;;;;;;4145877;28;20180;-67
2022/09/12 10:24:56;;;;;;;4.97;2.40;;;29.40;99.90;;;;;;4160665;28;20053;-68
2022/09/12 10:27:15;;;;;;;5.78;2.53;;;29.40;99.90;;;;;;4178130;28;20072;-70
2022/09/12 10:29:25;;;;;;;5.28;2.10;;;29.50;99.90;;;;;;4177323;28;20491;-68
2022/09/12 10:31:41;;;;;;;4.70;2.73;;;29.60;99.90;;;;;;4143436;28;20073;-69
2022/09/12 10:33:51;;;;;;;4.85;2.75;;;29.70;99.90;;;;;;4146052;28;20384;-68
2022/09/12 10:35:55;;;;;;;4.53;2.67;;;29.40;99.90;;;;;;4145892;28;20037;-68
2022/09/12 10:38:24;;;;;;;8.27;3.25;;;29.40;99.90;;;;;;4145700;28;20129;-68
2022/09/12 10:40:37;;;;;;;10.85;7.00;;;29.30;99.90;;;;;;4145830;28;20690;-68
2022/09/12 10:43:01;;;;;;;9.32;5.45;;;29.30;99.90;;;;;;4146268;28;20050;-67
2022/09/12 10:45:28;;;;;;;7.07;3.85;;;29.30;99.90;;;;;;4145149;28;20050;-67
2022/09/12 10:47:32;;;;;;;7.80;3.53;;;29.40;99.90;;;;;;4146273;28;20069;-68
2022/09/12 10:49:39;;;;;;;4.78;3.40;;;29.40;99.90;;;;;;4145846;28;20061;-67
2022/09/12 10:51:45;;;;;;;5.82;3.90;;;29.50;99.90;;;;;;4146153;28;20049;-68
2022/09/12 10:53:56;;;;;;;8.75;4.72;;;29.50;99.90;;;;;;4160229;28;20137;-67
2022/09/12 10:56:06;;;;;;;9.85;4.85;;;29.50;99.90;;;;;;4146235;28;20054;-68
2022/09/12 10:58:40;;;;;;;8.18;4.97;;;29.40;99.90;;;;;;4144462;28;20044;-68
2022/09/12 11:00:46;;;;;;;6.63;4.30;;;29.50;99.90;;;;;;4144562;28;20437;-68
2022/09/12 11:03:16;;;;;;;6.50;3.70;;;29.50;99.90;;;;;;4131925;28;20050;-69
2022/09/12 11:05:36;;;;;;;6.85;4.45;;;29.40;99.90;;;;;;4142968;28;20088;-69
2022/09/12 11:08:04;;;;;;;11.40;8.70;;;29.20;99.90;;;;;;4177372;28;20789;-68
2022/09/12 11:10:22;;;;;;;11.02;6.68;;;29.30;99.90;;;;;;4145900;28;20058;-69
2022/09/12 11:13:01;;;;;;;9.40;5.90;;;29.40;99.90;;;;;;4176694;28;20103;-70
2022/09/12 11:15:26;;;;;;;6.68;4.93;;;29.50;99.90;;;;;;4145064;28;20077;-70
2022/09/12 11:18:02;;;;;;;7.60;4.60;;;29.50;99.90;;;;;;4143479;28;20545;-69
2022/09/12 11:20:33;;;;;;;8.18;4.68;;;29.40;99.90;;;;;;4158634;28;20132;-69
2022/09/12 11:23:11;;;;;;;7.20;4.80;;;29.30;99.90;;;;;;4144441;28;20048;-69
2022/09/12 11:25:47;;;;;;;6.95;5.05;;;29.40;99.90;;;;;;4142406;28;20042;-69
2022/09/12 11:28:26;;;;;;;8.25;5.35;;;29.40;99.90;;;;;;4145416;28;20105;-68